Main page
METAR-TAF:

METAR-TAF

Airports :

Batajnica Air Base

Batajnica, Serbia

latitude: 44-56-07N, longitude: 020-15-27E, elevation: 86 m

Current weather observation

The report was made 20 minutes ago, at 20:00 UTC
Wind 4 kt from the North/Northeast
Temperature 7°C
Humidity 87%
Pressure 1025 hPa
Visibility: 8000 m

METAR: LYBT 282000Z 03004KT 8000 NSC 07/05 Q1025 NOSIG

Time: 22:20 (20:20 UTC)

Forecast

The report was made 3 hours and 20 minutes ago, at 17:00 UTC
Forecast valid from 28 at 18 UTC to 29 at 18 UTC
Wind 5 kt from the Northeast
Visibility: 8000 m
Temporary
from 28 at 21 UTC to 29 at 03 UTC
Visibility: 3000 m
mist
Becoming
from 29 at 07 UTC to 29 at 09 UTC
Wind 13 kt from the East

TAF: LYBT 281700Z 2818/2918 04005KT 8000 NSC TX16/2912Z TNM00/2904Z TEMPO 2821/2903 3000 BR BECMG 2907/2909 10013KT

Weather observations and forecasts of more than 4000 airports (METAR and TAF reports).

The available stations are represented by yellow and red dots on the map.

Hover mouse over dot to see the name of the station.

Then click to see weather observations and forecasts.

To change the map : click on the green buttons with a black cross to zoom in, on the green button with a dash to zoom out, or on the green arrows for adjacent maps.


METAR-TAF: